Aérodrome :
LOGIN :

S'inscrire | Disclaimer

   EN    FR    IT 

 










Légende :    VFR   VFR Marginal   IFR   IFR Intensif   IFR Très Intensif
Visi : 
Plafond : 
>= 8 km
>= 3000ft
5 à 8 km
1000 à 3000 ft
1500m à 5 km
500 à 1000 ft
800 à 1500m
200 à 500 ft
< 800m
< 200 ft
Symboles :   Orages  Brouillard  Fortes neiges  Fortes précipitations  Vent > 20 kt
SIGMETs :   Divers  Orages  Givrage  Turbulence  Onde Orograph.  Cendres Volcan.






- Altitude de l'aérodrome : 194 ft
- Code IATA : IEG


EPZG - Zielona Gora Babimost

DERNIER METAR :
  • 131430Z 20002KT 8000 -RA FEW016 BKN040 04/04 Q1004

METARs EXPIRÉS :
  • 131400Z VRB02KT 9999 -RA FEW010 OVC036 05/04 Q1004
  • 131330Z VRB01KT 8000 -RA FEW010 OVC034 04/03 Q1003
  • 131300Z 00000KT 9000 -RA FEW011 OVC032 05/03 Q1004
  • 131230Z VRB01KT 7000 -RA FEW006 SCT014 OVC025 05/03 Q1004
  • 131200Z VRB02KT 4400 -RA BR BKN016 OVC022 04/04 Q1004 RERA
  • 131130Z VRB02KT 3800 RA BR BKN016 OVC023 04/04 Q1004

TAF TAF EPZG
Valide du 13 à 15h jusqu'au 14 à 00h UTC


131430Z 1315/1324 VRB02KT 7000 BKN023
TEMPO 1315/1318 4000 RA BR BKN006 OVC023
BECMG 1318/1321 4000 BR BKN013
TEMPO 1318/1324 2000 RASN BR BKN004 OVC013



MET'MAP, la Météo Aéronautique d'un coup d'oeil ! - Copyright ORBIFLY Décembre 2007 - Disclaimer

ORBIFLY MET'MAP TEAM :

Programmation & Développement : Alexandra Zaïnal
Conception & Développement : Baudouin d'Aumeries
Co-Programmation & Développement : Marc-Olivier Méhu
Soutien technique & logistique : Manuel Goepfert

Contact : metmap@orbifly.com




SOURCES & CREDITS :

   NOAA